createdAt,value
2017-12-02T00:00:40.462Z,0
2017-12-02T00:01:40.528Z,0
2017-12-02T00:02:40.377Z,0
2017-12-02T00:03:40.428Z,0
2017-12-02T00:04:40.491Z,0
2017-12-02T00:05:40.440Z,0
2017-12-02T00:06:40.493Z,0
2017-12-02T00:07:40.432Z,0
2017-12-02T00:08:40.427Z,0
2017-12-02T00:09:40.427Z,0
2017-12-02T00:10:40.431Z,0
2017-12-02T00:11:40.505Z,0
2017-12-02T00:12:40.429Z,0
2017-12-02T00:13:40.494Z,0
2017-12-02T00:14:40.432Z,0
2017-12-02T00:15:40.498Z,0
2017-12-02T00:16:40.433Z,0
2017-12-02T00:17:40.431Z,0
2017-12-02T00:18:40.493Z,0
2017-12-02T00:19:40.376Z,0
2017-12-02T00:20:40.496Z,0
2017-12-02T00:21:40.411Z,0
2017-12-02T00:22:40.411Z,0
2017-12-02T00:23:40.487Z,0
2017-12-02T00:24:40.492Z,0
2017-12-02T00:25:40.410Z,0
2017-12-02T00:26:40.389Z,0
2017-12-02T00:27:40.496Z,0
2017-12-02T00:28:40.444Z,0
2017-12-02T00:29:40.389Z,0
2017-12-02T00:30:40.454Z,0
2017-12-02T00:31:40.444Z,0
2017-12-02T00:32:40.445Z,0
2017-12-02T00:33:40.444Z,0
2017-12-02T00:34:40.510Z,0
2017-12-02T00:35:40.445Z,0
2017-12-02T00:36:40.511Z,0
2017-12-02T00:37:40.444Z,0
2017-12-02T00:38:40.511Z,0
2017-12-02T00:39:40.450Z,0
2017-12-02T00:40:40.451Z,0
2017-12-02T00:41:40.517Z,0
2017-12-02T00:42:40.520Z,0
2017-12-02T00:43:40.527Z,0
2017-12-02T00:44:40.451Z,0
2017-12-02T00:45:40.472Z,0
2017-12-02T00:46:40.517Z,0
2017-12-02T00:47:40.453Z,0
2017-12-02T00:48:40.517Z,0
2017-12-02T00:49:40.390Z,0
2017-12-02T00:50:40.504Z,0
2017-12-02T00:51:40.406Z,0
2017-12-02T00:52:40.407Z,0
2017-12-02T00:53:40.431Z,0
2017-12-02T00:54:40.388Z,0
2017-12-02T00:55:40.445Z,0
2017-12-02T00:56:40.423Z,0
2017-12-02T00:57:40.484Z,0
2017-12-02T00:58:40.460Z,0
2017-12-02T00:59:40.509Z,0
2017-12-02T01:00:40.398Z,0
2017-12-02T01:01:40.424Z,0
2017-12-02T01:02:40.464Z,0
2017-12-02T01:03:40.457Z,0
2017-12-02T01:04:40.487Z,0
2017-12-02T01:05:40.395Z,0
2017-12-02T01:06:40.425Z,0
2017-12-02T01:07:40.488Z,0
2017-12-02T01:08:40.400Z,0
2017-12-02T01:09:40.526Z,0
2017-12-02T01:10:40.434Z,0
2017-12-02T01:11:40.407Z,0
2017-12-02T01:12:40.438Z,0
2017-12-02T01:13:40.439Z,0
2017-12-02T01:14:40.526Z,0
2017-12-02T01:15:40.723Z,0
2017-12-02T01:16:40.523Z,0
2017-12-02T01:17:40.438Z,0
2017-12-02T01:18:40.387Z,0
2017-12-02T01:19:40.437Z,0
2017-12-02T01:20:40.438Z,0
2017-12-02T01:21:40.395Z,0
2017-12-02T01:22:40.396Z,0
2017-12-02T01:23:40.488Z,0
2017-12-02T01:24:40.393Z,0
2017-12-02T01:25:40.394Z,0
2017-12-02T01:26:40.489Z,0
2017-12-02T01:27:40.489Z,0
2017-12-02T01:28:40.504Z,0
2017-12-02T01:29:40.479Z,0
2017-12-02T01:30:40.479Z,0
2017-12-02T01:31:40.478Z,0
2017-12-02T01:32:40.548Z,0
2017-12-02T01:33:40.478Z,0
2017-12-02T01:34:40.545Z,0
2017-12-02T01:35:40.480Z,0
2017-12-02T01:36:40.548Z,0
2017-12-02T01:37:40.487Z,0
2017-12-02T01:38:40.484Z,0
2017-12-02T01:39:40.485Z,0
2017-12-02T01:40:40.548Z,0
2017-12-02T01:41:40.483Z,0
2017-12-02T01:42:40.551Z,0
2017-12-02T01:43:40.485Z,0
2017-12-02T01:44:40.556Z,0
2017-12-02T01:45:40.560Z,0
2017-12-02T01:46:40.497Z,0
2017-12-02T01:47:40.554Z,0
2017-12-02T01:48:40.562Z,0
2017-12-02T01:49:40.552Z,0
2017-12-02T01:50:40.554Z,0
2017-12-02T01:51:40.495Z,0
2017-12-02T01:52:40.493Z,0
2017-12-02T01:53:40.494Z,0
2017-12-02T01:54:40.558Z,0
2017-12-02T01:55:40.561Z,0
2017-12-02T01:56:40.492Z,0
2017-12-02T01:57:40.561Z,0
2017-12-02T01:58:40.492Z,0
2017-12-02T01:59:40.561Z,0
2017-12-02T02:00:40.504Z,0
2017-12-02T02:01:40.566Z,0
2017-12-02T02:02:40.498Z,0
2017-12-02T02:03:40.564Z,0
2017-12-02T02:04:40.498Z,0
2017-12-02T02:05:40.567Z,0
2017-12-02T02:06:40.523Z,0
2017-12-02T02:07:40.509Z,0
2017-12-02T02:08:40.572Z,0
2017-12-02T02:09:40.506Z,0
2017-12-02T02:10:40.567Z,0
2017-12-02T02:11:40.503Z,0
2017-12-02T02:12:40.579Z,0
2017-12-02T02:13:40.513Z,0
2017-12-02T02:14:40.569Z,0
2017-12-02T02:15:40.509Z,0
2017-12-02T02:16:40.572Z,0
2017-12-02T02:17:40.514Z,0
2017-12-02T02:18:40.568Z,0
2017-12-02T02:19:40.575Z,0
2017-12-02T02:20:40.513Z,0
2017-12-02T02:21:40.575Z,0
2017-12-02T02:22:40.509Z,0
2017-12-02T02:23:40.575Z,0
2017-12-02T02:24:40.513Z,0
2017-12-02T02:25:40.576Z,0
2017-12-02T02:26:40.519Z,0
2017-12-02T02:27:40.579Z,0
2017-12-02T02:28:40.514Z,0
2017-12-02T02:29:40.539Z,0
2017-12-02T02:30:40.506Z,0
2017-12-02T02:31:40.450Z,0
2017-12-02T02:32:40.474Z,0
2017-12-02T02:33:40.555Z,0
2017-12-02T02:34:40.569Z,0
2017-12-02T02:35:40.597Z,0
2017-12-02T02:36:40.536Z,0
2017-12-02T02:37:40.539Z,0
2017-12-02T02:38:40.440Z,0
2017-12-02T02:39:40.585Z,0
2017-12-02T02:40:40.520Z,0
2017-12-02T02:41:40.596Z,0
2017-12-02T02:42:40.527Z,0
2017-12-02T02:43:40.588Z,0
2017-12-02T02:44:40.524Z,0
2017-12-02T02:45:40.593Z,0
2017-12-02T02:46:40.552Z,0
2017-12-02T02:47:40.590Z,0
2017-12-02T02:48:40.526Z,0
2017-12-02T02:49:40.584Z,0
2017-12-02T02:50:40.577Z,0
2017-12-02T02:51:40.501Z,0
2017-12-02T02:52:40.532Z,0
2017-12-02T02:53:40.580Z,0
2017-12-02T02:54:40.590Z,0
2017-12-02T02:55:40.585Z,0
2017-12-02T02:56:40.591Z,0
2017-12-02T02:57:40.482Z,0
2017-12-02T02:58:40.550Z,0
2017-12-02T02:59:40.520Z,0
2017-12-02T03:00:40.503Z,0
2017-12-02T03:01:40.535Z,0
2017-12-02T03:02:40.470Z,0
2017-12-02T03:03:40.585Z,0
2017-12-02T03:04:40.503Z,0
2017-12-02T03:05:40.569Z,0
2017-12-02T03:06:40.596Z,0
2017-12-02T03:07:40.513Z,0
2017-12-02T03:08:40.598Z,0
2017-12-02T03:09:40.597Z,0
2017-12-02T03:10:40.537Z,0
2017-12-02T03:11:40.602Z,0
2017-12-02T03:12:40.542Z,0
2017-12-02T03:13:40.605Z,0
2017-12-02T03:14:40.664Z,0
2017-12-02T03:15:40.544Z,0
2017-12-02T03:16:40.611Z,0
2017-12-02T03:17:40.637Z,0
2017-12-02T03:18:40.546Z,0
2017-12-02T03:19:40.588Z,0
2017-12-02T03:20:40.543Z,0
2017-12-02T03:21:40.510Z,0
2017-12-02T03:22:40.502Z,0
2017-12-02T03:23:40.483Z,0
2017-12-02T03:24:40.479Z,0
2017-12-02T03:25:40.538Z,0
2017-12-02T03:26:40.501Z,0
2017-12-02T03:27:40.508Z,0
2017-12-02T03:28:40.567Z,0
2017-12-02T03:29:40.557Z,0
2017-12-02T03:30:40.484Z,0
2017-12-02T03:31:40.508Z,0
2017-12-02T03:32:40.571Z,0
2017-12-02T03:33:40.595Z,0
2017-12-02T03:34:40.544Z,0
2017-12-02T03:35:40.599Z,0
2017-12-02T03:36:40.490Z,0
2017-12-02T03:37:40.633Z,0
2017-12-02T03:38:40.507Z,0
2017-12-02T03:39:40.510Z,0
2017-12-02T03:40:40.579Z,0
2017-12-02T03:41:40.552Z,0
2017-12-02T03:42:40.487Z,0
2017-12-02T03:43:40.553Z,0
2017-12-02T03:44:40.603Z,0
2017-12-02T03:45:40.556Z,0
2017-12-02T03:46:40.558Z,0
2017-12-02T03:47:40.564Z,0
2017-12-02T03:48:40.626Z,0
2017-12-02T03:49:40.553Z,0
2017-12-02T03:50:40.493Z,0
2017-12-02T03:51:40.611Z,0
2017-12-02T03:52:40.564Z,0
2017-12-02T03:53:40.520Z,0
2017-12-02T03:54:40.560Z,0
2017-12-02T03:55:40.528Z,0
2017-12-02T03:56:40.555Z,0
2017-12-02T03:57:40.515Z,0
2017-12-02T03:58:40.501Z,0
2017-12-02T03:59:40.601Z,0
2017-12-02T04:00:40.568Z,0
2017-12-02T04:01:40.636Z,0
2017-12-02T04:02:40.568Z,0
2017-12-02T04:03:40.570Z,0
2017-12-02T04:04:40.575Z,0
2017-12-02T04:05:40.729Z,0
2017-12-02T04:06:40.572Z,0
2017-12-02T04:07:40.600Z,0
2017-12-02T04:08:40.637Z,0
2017-12-02T04:09:40.666Z,0
2017-12-02T04:10:40.647Z,0
2017-12-02T04:11:40.574Z,0
2017-12-02T04:12:40.643Z,0
2017-12-02T04:13:40.650Z,0
2017-12-02T04:14:40.574Z,0
2017-12-02T04:15:40.643Z,0
2017-12-02T04:16:40.603Z,0
2017-12-02T04:17:40.652Z,0
2017-12-02T04:18:40.579Z,0
2017-12-02T04:19:40.647Z,0
2017-12-02T04:20:40.578Z,0
2017-12-02T04:21:40.580Z,0
2017-12-02T04:22:40.645Z,0
2017-12-02T04:23:40.581Z,0
2017-12-02T04:24:40.654Z,0
2017-12-02T04:25:40.585Z,0
2017-12-02T04:26:40.669Z,0
2017-12-02T04:27:40.652Z,0
2017-12-02T04:28:40.649Z,0
2017-12-02T04:29:40.654Z,0
2017-12-02T04:30:40.587Z,0
2017-12-02T04:31:40.663Z,0
2017-12-02T04:32:40.587Z,0
2017-12-02T04:33:40.589Z,0
2017-12-02T04:34:40.659Z,0
2017-12-02T04:35:40.674Z,0
2017-12-02T04:36:40.660Z,0
2017-12-02T04:37:40.590Z,0
2017-12-02T04:38:40.545Z,0
2017-12-02T04:39:40.661Z,0
2017-12-02T04:40:40.590Z,0
2017-12-02T04:41:40.664Z,0
2017-12-02T04:42:40.600Z,0
2017-12-02T04:43:40.664Z,0
2017-12-02T04:44:40.624Z,0
2017-12-02T04:45:40.605Z,0
2017-12-02T04:46:40.594Z,0
2017-12-02T04:47:40.665Z,0
2017-12-02T04:48:40.662Z,0
2017-12-02T04:49:40.602Z,0
2017-12-02T04:50:40.669Z,0
2017-12-02T04:51:40.598Z,0
2017-12-02T04:52:40.664Z,0
2017-12-02T04:53:40.603Z,0
2017-12-02T04:54:40.668Z,0
2017-12-02T04:55:40.669Z,0
2017-12-02T04:56:40.599Z,0
2017-12-02T04:57:40.667Z,0
2017-12-02T04:58:40.609Z,0
2017-12-02T04:59:40.668Z,0
2017-12-02T05:00:40.669Z,0
2017-12-02T05:01:40.672Z,0
2017-12-02T05:02:40.673Z,0
2017-12-02T05:03:40.601Z,0
2017-12-02T05:04:40.672Z,0
2017-12-02T05:05:40.602Z,0
2017-12-02T05:06:40.608Z,0
2017-12-02T05:07:40.676Z,0
2017-12-02T05:08:40.609Z,0
2017-12-02T05:09:40.631Z,0
2017-12-02T05:10:40.541Z,0
2017-12-02T05:11:40.625Z,0
2017-12-02T05:12:40.545Z,0
2017-12-02T05:13:40.665Z,0
2017-12-02T05:14:40.638Z,0
2017-12-02T05:15:40.604Z,0
2017-12-02T05:16:40.711Z,0
2017-12-02T05:17:40.628Z,0
2017-12-02T05:18:40.664Z,0
2017-12-02T05:19:40.549Z,0
2017-12-02T05:20:40.666Z,0
2017-12-02T05:21:40.571Z,0
2017-12-02T05:22:40.608Z,0
2017-12-02T05:23:40.548Z,0
2017-12-02T05:24:40.580Z,0
2017-12-02T05:25:40.610Z,0
2017-12-02T05:26:40.614Z,0
2017-12-02T05:27:40.640Z,0
2017-12-02T05:28:40.560Z,0
2017-12-02T05:29:40.623Z,0
2017-12-02T05:30:40.689Z,0
2017-12-02T05:31:40.622Z,0
2017-12-02T05:32:40.626Z,0
2017-12-02T05:33:40.691Z,0
2017-12-02T05:34:40.622Z,0
2017-12-02T05:35:40.693Z,0
2017-12-02T05:36:40.652Z,0
2017-12-02T05:37:40.692Z,0
2017-12-02T05:38:40.693Z,0
2017-12-02T05:39:40.685Z,0
2017-12-02T05:40:40.597Z,0
2017-12-02T05:41:40.581Z,0
2017-12-02T05:42:40.598Z,0
2017-12-02T05:43:40.682Z,0
2017-12-02T05:44:40.687Z,0
2017-12-02T05:45:40.692Z,0
2017-12-02T05:46:40.606Z,0
2017-12-02T05:47:40.620Z,0
2017-12-02T05:48:40.601Z,0
2017-12-02T05:49:40.700Z,0
2017-12-02T05:50:40.645Z,0
2017-12-02T05:51:40.704Z,0
2017-12-02T05:52:40.704Z,0
2017-12-02T05:53:40.636Z,0
2017-12-02T05:54:40.636Z,0
2017-12-02T05:55:40.702Z,0
2017-12-02T05:56:40.639Z,0
2017-12-02T05:57:40.704Z,0
2017-12-02T05:58:40.696Z,0
2017-12-02T05:59:40.596Z,0
2017-12-02T06:00:40.684Z,0
2017-12-02T06:01:40.599Z,0
2017-12-02T06:02:40.636Z,0
2017-12-02T06:03:40.568Z,0
2017-12-02T06:04:40.708Z,0
2017-12-02T06:05:40.663Z,0
2017-12-02T06:06:40.637Z,0
2017-12-02T06:07:40.662Z,0
2017-12-02T06:08:40.600Z,0
2017-12-02T06:09:40.644Z,0
2017-12-02T06:10:40.711Z,0
2017-12-02T06:11:40.593Z,0
2017-12-02T06:12:40.617Z,0
2017-12-02T06:13:40.613Z,0
2017-12-02T06:14:40.711Z,0
2017-12-02T06:15:40.619Z,0
2017-12-02T06:16:40.616Z,0
2017-12-02T06:17:40.582Z,0
2017-12-02T06:18:40.703Z,0
2017-12-02T06:19:40.650Z,0
2017-12-02T06:20:40.653Z,0
2017-12-02T06:21:40.721Z,0
2017-12-02T06:22:40.652Z,0
2017-12-02T06:23:40.720Z,0
2017-12-02T06:24:40.654Z,0
2017-12-02T06:25:40.721Z,0
2017-12-02T06:26:40.659Z,0
2017-12-02T06:27:40.656Z,0
2017-12-02T06:28:40.723Z,0
2017-12-02T06:29:40.631Z,0
2017-12-02T06:30:40.592Z,0
2017-12-02T06:31:40.633Z,0
2017-12-02T06:32:40.629Z,0
2017-12-02T06:33:40.717Z,0
2017-12-02T06:34:40.682Z,0
2017-12-02T06:35:40.627Z,0
2017-12-02T06:36:40.693Z,0
2017-12-02T06:37:40.632Z,0
2017-12-02T06:38:40.728Z,0
2017-12-02T06:39:40.738Z,0
2017-12-02T06:40:40.664Z,0
2017-12-02T06:41:40.612Z,0
2017-12-02T06:42:40.668Z,0
2017-12-02T06:43:40.795Z,0
2017-12-02T06:44:40.735Z,0
2017-12-02T06:45:40.667Z,0
2017-12-02T06:46:40.669Z,0
2017-12-02T06:47:40.772Z,0
2017-12-02T06:48:40.734Z,0
2017-12-02T06:49:40.670Z,0
2017-12-02T06:50:40.743Z,0
2017-12-02T06:51:40.668Z,0
2017-12-02T06:52:40.736Z,0
2017-12-02T06:53:40.682Z,0
2017-12-02T06:54:40.736Z,0
2017-12-02T06:55:40.674Z,0
2017-12-02T06:56:40.741Z,0
2017-12-02T06:57:40.759Z,0
2017-12-02T06:58:40.736Z,0
2017-12-02T06:59:40.724Z,0
2017-12-02T07:00:40.742Z,0
2017-12-02T07:01:40.622Z,0
2017-12-02T07:02:40.691Z,0
2017-12-02T07:03:40.605Z,0
2017-12-02T07:04:40.650Z,0
2017-12-02T07:05:40.648Z,0
2017-12-02T07:06:40.704Z,0
2017-12-02T07:07:40.729Z,0
2017-12-02T07:08:40.699Z,0
2017-12-02T07:09:40.682Z,0
2017-12-02T07:10:40.682Z,0
2017-12-02T07:11:40.756Z,0
2017-12-02T07:12:40.680Z,0
2017-12-02T07:13:40.747Z,0
2017-12-02T07:14:40.677Z,0
2017-12-02T07:15:40.756Z,0
2017-12-02T07:16:40.683Z,0
2017-12-02T07:17:40.686Z,0
2017-12-02T07:18:40.750Z,0
2017-12-02T07:19:40.678Z,0
2017-12-02T07:20:40.662Z,0
2017-12-02T07:21:40.760Z,0
2017-12-02T07:22:40.725Z,0
2017-12-02T07:23:40.709Z,0
2017-12-02T07:24:40.745Z,0
2017-12-02T07:25:40.752Z,0
2017-12-02T07:26:40.637Z,0
2017-12-02T07:27:40.665Z,0
2017-12-02T07:28:40.701Z,0
2017-12-02T07:29:40.757Z,0
2017-12-02T07:30:40.691Z,0
2017-12-02T07:31:40.776Z,0
2017-12-02T07:32:40.697Z,0
2017-12-02T07:33:40.759Z,0
2017-12-02T07:34:40.700Z,0
2017-12-02T07:35:40.767Z,0
2017-12-02T07:36:40.698Z,0
2017-12-02T07:37:40.762Z,0
2017-12-02T07:38:40.699Z,0
2017-12-02T07:39:40.624Z,0
2017-12-02T07:40:40.670Z,0
2017-12-02T07:41:40.675Z,0
2017-12-02T07:42:40.760Z,0
2017-12-02T07:43:40.702Z,0
2017-12-02T07:44:40.643Z,0
2017-12-02T07:45:40.670Z,0
2017-12-02T07:46:40.770Z,0
2017-12-02T07:47:40.653Z,0
2017-12-02T07:48:40.636Z,0
2017-12-02T07:49:40.769Z,0
2017-12-02T07:50:40.702Z,0
2017-12-02T07:51:40.769Z,0
2017-12-02T07:52:40.705Z,0
2017-12-02T07:53:40.770Z,0
2017-12-02T07:54:40.702Z,0
2017-12-02T07:55:40.830Z,0
2017-12-02T07:56:40.704Z,0
2017-12-02T07:57:40.774Z,0
2017-12-02T07:58:40.706Z,0
2017-12-02T07:59:40.706Z,0
2017-12-02T08:00:40.775Z,0
2017-12-02T08:01:40.709Z,0
2017-12-02T08:02:40.778Z,0
2017-12-02T08:03:40.714Z,0
2017-12-02T08:04:40.781Z,0
2017-12-02T08:05:40.706Z,0
2017-12-02T08:06:40.779Z,0
2017-12-02T08:07:40.713Z,0
2017-12-02T08:08:40.787Z,0
2017-12-02T08:09:40.652Z,0
2017-12-02T08:10:40.688Z,0
2017-12-02T08:11:40.760Z,0
2017-12-02T08:12:40.673Z,0
2017-12-02T08:13:40.743Z,14
2017-12-02T08:14:40.669Z,16
2017-12-02T08:15:40.719Z,17
2017-12-02T08:16:40.736Z,17
2017-12-02T08:17:40.734Z,16
2017-12-02T08:18:40.652Z,15
2017-12-02T08:19:40.650Z,16
2017-12-02T08:20:40.653Z,19
2017-12-02T08:21:40.655Z,24
2017-12-02T08:22:40.681Z,26
2017-12-02T08:23:40.732Z,27
2017-12-02T08:24:40.646Z,28
2017-12-02T08:25:40.750Z,30
2017-12-02T08:26:40.646Z,34
2017-12-02T08:27:40.742Z,37
2017-12-02T08:28:40.698Z,39
2017-12-02T08:29:40.676Z,40
2017-12-02T08:30:40.679Z,37
2017-12-02T08:31:40.728Z,31
2017-12-02T08:32:40.648Z,34
2017-12-02T08:33:40.747Z,34
2017-12-02T08:34:40.728Z,33
2017-12-02T08:35:40.771Z,31
2017-12-02T08:36:40.684Z,30
2017-12-02T08:37:40.661Z,32
2017-12-02T08:38:40.706Z,32
2017-12-02T08:39:40.733Z,34
2017-12-02T08:40:40.809Z,34
2017-12-02T08:41:40.728Z,32
2017-12-02T08:42:40.798Z,29
2017-12-02T08:43:40.730Z,28
2017-12-02T08:44:40.808Z,28
2017-12-02T08:45:40.759Z,30
2017-12-02T08:46:40.802Z,33
2017-12-02T08:47:40.730Z,32
2017-12-02T08:48:40.813Z,36
2017-12-02T08:49:40.733Z,33
2017-12-02T08:50:40.817Z,41
2017-12-02T08:51:40.739Z,47
2017-12-02T08:52:40.805Z,51
2017-12-02T08:53:40.733Z,55
2017-12-02T08:54:40.807Z,58
2017-12-02T08:55:40.757Z,61
2017-12-02T08:56:40.812Z,62
2017-12-02T08:57:40.740Z,66
2017-12-02T08:58:40.739Z,69
2017-12-02T08:59:40.735Z,71
2017-12-02T09:00:40.697Z,72
2017-12-02T09:01:40.670Z,74
2017-12-02T09:02:40.776Z,81
2017-12-02T09:03:40.791Z,84
2017-12-02T09:04:40.669Z,92
2017-12-02T09:05:40.749Z,91
2017-12-02T09:06:40.672Z,88
2017-12-02T09:07:40.745Z,85
2017-12-02T09:08:40.743Z,86
2017-12-02T09:09:40.820Z,84
2017-12-02T09:10:40.749Z,89
2017-12-02T09:11:40.754Z,88
2017-12-02T09:12:40.750Z,91
2017-12-02T09:13:40.819Z,98
2017-12-02T09:14:40.788Z,98
2017-12-02T09:15:40.840Z,96
2017-12-02T09:16:40.750Z,95
2017-12-02T09:17:40.820Z,92
2017-12-02T09:18:40.747Z,91
2017-12-02T09:19:40.754Z,90
2017-12-02T09:20:40.770Z,89
2017-12-02T09:21:40.758Z,88
2017-12-02T09:22:40.725Z,95
2017-12-02T09:23:40.687Z,98
2017-12-02T09:24:40.757Z,102
2017-12-02T09:25:40.788Z,106
2017-12-02T09:26:40.788Z,107
2017-12-02T09:27:40.790Z,106
2017-12-02T09:28:40.718Z,103
2017-12-02T09:29:40.792Z,105
2017-12-02T09:30:40.838Z,105
2017-12-02T09:31:40.831Z,105
2017-12-02T09:32:40.754Z,99
2017-12-02T09:33:40.740Z,104
2017-12-02T09:34:40.770Z,102
2017-12-02T09:35:40.834Z,108
2017-12-02T09:36:40.817Z,109
2017-12-02T09:37:40.763Z,104
2017-12-02T09:38:40.819Z,108
2017-12-02T09:39:40.819Z,118
2017-12-02T09:40:40.804Z,131
2017-12-02T09:41:40.739Z,136
2017-12-02T09:42:40.823Z,135
2017-12-02T09:43:40.743Z,134
2017-12-02T09:44:40.716Z,132
2017-12-02T09:45:40.821Z,132
2017-12-02T09:46:40.840Z,137
2017-12-02T09:47:40.815Z,139
2017-12-02T09:48:40.764Z,154
2017-12-02T09:49:40.742Z,162
2017-12-02T09:50:40.773Z,149
2017-12-02T09:51:40.843Z,150
2017-12-02T09:52:40.778Z,145
2017-12-02T09:53:40.844Z,143
2017-12-02T09:54:40.775Z,141
2017-12-02T09:55:40.778Z,141
2017-12-02T09:56:40.867Z,139
2017-12-02T09:57:40.782Z,141
2017-12-02T09:58:40.848Z,140
2017-12-02T09:59:40.779Z,134
2017-12-02T10:00:40.715Z,132
2017-12-02T10:01:40.756Z,136
2017-12-02T10:02:40.751Z,143
2017-12-02T10:03:40.777Z,143
2017-12-02T10:04:40.807Z,138
2017-12-02T10:05:40.754Z,141
2017-12-02T10:06:40.751Z,146
2017-12-02T10:07:40.750Z,152
2017-12-02T10:08:40.854Z,153
2017-12-02T10:09:40.814Z,153
2017-12-02T10:10:40.779Z,148
2017-12-02T10:11:40.759Z,142
2017-12-02T10:12:40.824Z,138
2017-12-02T10:13:40.826Z,133
2017-12-02T10:14:40.824Z,131
2017-12-02T10:15:40.732Z,130
2017-12-02T10:16:40.850Z,132
2017-12-02T10:17:40.846Z,129
2017-12-02T10:18:40.813Z,125
2017-12-02T10:19:40.740Z,115
2017-12-02T10:20:40.861Z,106
2017-12-02T10:21:40.832Z,101
2017-12-02T10:22:40.815Z,99
2017-12-02T10:23:40.862Z,101
2017-12-02T10:24:40.874Z,110
2017-12-02T10:25:40.804Z,121
2017-12-02T10:26:40.850Z,129
2017-12-02T10:27:40.864Z,136
2017-12-02T10:28:40.791Z,137
2017-12-02T10:29:40.864Z,130
2017-12-02T10:30:40.926Z,131
2017-12-02T10:31:40.830Z,134
2017-12-02T10:32:40.795Z,139
2017-12-02T10:33:40.859Z,143
2017-12-02T10:34:40.747Z,148
2017-12-02T10:35:40.865Z,151
2017-12-02T10:36:40.792Z,153
2017-12-02T10:37:40.811Z,154
2017-12-02T10:38:40.770Z,155
2017-12-02T10:39:40.839Z,153
2017-12-02T10:40:40.830Z,152
2017-12-02T10:41:40.782Z,149
2017-12-02T10:42:40.766Z,153
2017-12-02T10:43:40.784Z,159
2017-12-02T10:44:40.742Z,174
2017-12-02T10:45:40.803Z,170
2017-12-02T10:46:40.854Z,174
2017-12-02T10:47:40.803Z,168
2017-12-02T10:48:40.731Z,177
2017-12-02T10:49:40.854Z,185
2017-12-02T10:50:40.802Z,193
2017-12-02T10:51:40.814Z,200
2017-12-02T10:52:40.806Z,200
2017-12-02T10:53:40.877Z,203
2017-12-02T10:54:40.803Z,199
2017-12-02T10:55:40.880Z,194
2017-12-02T10:56:40.807Z,197
2017-12-02T10:57:40.820Z,194
2017-12-02T10:58:40.884Z,185
2017-12-02T10:59:40.817Z,182
2017-12-02T11:00:40.844Z,177
2017-12-02T11:01:40.851Z,174
2017-12-02T11:02:40.742Z,171
2017-12-02T11:03:40.814Z,162
2017-12-02T11:04:40.777Z,164
2017-12-02T11:05:40.757Z,165
2017-12-02T11:06:40.846Z,165
2017-12-02T11:07:40.868Z,166
2017-12-02T11:08:40.815Z,168
2017-12-02T11:09:40.864Z,170
2017-12-02T11:10:40.808Z,180
2017-12-02T11:11:40.852Z,192
2017-12-02T11:12:40.825Z,235
2017-12-02T11:13:40.753Z,292
2017-12-02T11:14:40.870Z,197
2017-12-02T11:15:40.766Z,187
2017-12-02T11:16:40.824Z,182
2017-12-02T11:17:40.776Z,192
2017-12-02T11:18:40.762Z,194
2017-12-02T11:19:40.822Z,194
2017-12-02T11:20:40.896Z,189
2017-12-02T11:21:40.826Z,174
2017-12-02T11:22:40.894Z,170
2017-12-02T11:23:40.831Z,177
2017-12-02T11:24:40.828Z,172
2017-12-02T11:25:40.901Z,167
2017-12-02T11:26:40.826Z,164
2017-12-02T11:27:40.899Z,155
2017-12-02T11:28:40.826Z,153
2017-12-02T11:29:40.898Z,157
2017-12-02T11:30:40.851Z,160
2017-12-02T11:31:40.786Z,162
2017-12-02T11:32:40.889Z,163
2017-12-02T11:33:40.783Z,165
2017-12-02T11:34:40.801Z,167
2017-12-02T11:35:40.873Z,155
2017-12-02T11:36:40.900Z,147
2017-12-02T11:37:40.789Z,131
2017-12-02T11:38:40.856Z,112
2017-12-02T11:39:40.785Z,103
2017-12-02T11:40:40.874Z,97
2017-12-02T11:41:40.810Z,97
2017-12-02T11:42:40.873Z,96
2017-12-02T11:43:40.893Z,100
2017-12-02T11:44:40.832Z,102
2017-12-02T11:45:40.908Z,103
2017-12-02T11:46:40.811Z,106
2017-12-02T11:47:40.877Z,110
2017-12-02T11:48:40.842Z,113
2017-12-02T11:49:40.794Z,122
2017-12-02T11:50:40.914Z,127
2017-12-02T11:51:40.895Z,121
2017-12-02T11:52:40.792Z,128
2017-12-02T11:53:40.815Z,117
2017-12-02T11:54:40.781Z,118
2017-12-02T11:55:40.904Z,118
2017-12-02T11:56:40.915Z,118
2017-12-02T11:57:40.918Z,154
2017-12-02T11:58:40.904Z,117
2017-12-02T11:59:40.797Z,116
2017-12-02T12:00:40.922Z,121
2017-12-02T12:01:40.879Z,129
2017-12-02T12:02:40.925Z,137
2017-12-02T12:03:40.917Z,141
2017-12-02T12:04:40.922Z,146
2017-12-02T12:05:40.847Z,150
2017-12-02T12:06:40.922Z,154
2017-12-02T12:07:40.873Z,153
2017-12-02T12:08:40.859Z,153
2017-12-02T12:09:40.925Z,157
2017-12-02T12:10:40.859Z,176
2017-12-02T12:11:40.926Z,172
2017-12-02T12:12:40.859Z,176
2017-12-02T12:13:40.946Z,162
2017-12-02T12:14:40.861Z,160
2017-12-02T12:15:40.928Z,158
2017-12-02T12:16:40.876Z,160
2017-12-02T12:17:40.933Z,155
2017-12-02T12:18:40.862Z,147
2017-12-02T12:19:40.938Z,137
2017-12-02T12:20:40.895Z,149
2017-12-02T12:21:40.814Z,136
2017-12-02T12:22:40.898Z,148
2017-12-02T12:23:40.923Z,153
2017-12-02T12:24:40.919Z,209
2017-12-02T12:25:40.935Z,207
2017-12-02T12:26:40.820Z,272
2017-12-02T12:27:40.921Z,272
2017-12-02T12:28:40.924Z,277
2017-12-02T12:29:40.843Z,232
2017-12-02T12:30:40.882Z,140
2017-12-02T12:31:40.925Z,127
2017-12-02T12:32:40.839Z,139
2017-12-02T12:33:40.846Z,146
2017-12-02T12:34:40.823Z,160
2017-12-02T12:35:40.867Z,140
2017-12-02T12:36:40.927Z,216
2017-12-02T12:37:40.845Z,248
2017-12-02T12:38:40.927Z,251
2017-12-02T12:39:40.915Z,223
2017-12-02T12:40:40.908Z,186
2017-12-02T12:41:40.906Z,162
2017-12-02T12:42:40.823Z,139
2017-12-02T12:43:40.938Z,134
2017-12-02T12:44:40.932Z,128
2017-12-02T12:45:40.914Z,186
2017-12-02T12:46:40.828Z,132
2017-12-02T12:47:40.917Z,139
2017-12-02T12:48:40.875Z,238
2017-12-02T12:49:40.901Z,144
2017-12-02T12:50:40.876Z,115
2017-12-02T12:51:40.957Z,105
2017-12-02T12:52:40.880Z,97
2017-12-02T12:53:40.959Z,95
2017-12-02T12:54:40.902Z,103
2017-12-02T12:55:40.951Z,116
2017-12-02T12:56:40.880Z,190
2017-12-02T12:57:40.956Z,140
2017-12-02T12:58:40.885Z,110
2017-12-02T12:59:40.959Z,100
2017-12-02T13:00:40.858Z,139
2017-12-02T13:01:40.821Z,168
2017-12-02T13:02:40.887Z,98
2017-12-02T13:03:40.883Z,94
2017-12-02T13:04:40.927Z,86
2017-12-02T13:05:40.948Z,102
2017-12-02T13:06:40.824Z,125
2017-12-02T13:07:40.952Z,91
2017-12-02T13:08:40.928Z,142
2017-12-02T13:09:40.959Z,104
2017-12-02T13:10:40.960Z,104
2017-12-02T13:11:40.891Z,202
2017-12-02T13:12:40.960Z,194
2017-12-02T13:13:40.893Z,141
2017-12-02T13:14:40.965Z,140
2017-12-02T13:15:40.891Z,188
2017-12-02T13:16:40.973Z,201
2017-12-02T13:17:40.894Z,202
2017-12-02T13:18:40.981Z,202
2017-12-02T13:19:40.984Z,195
2017-12-02T13:20:40.835Z,168
2017-12-02T13:21:40.861Z,167
2017-12-02T13:22:40.854Z,99
2017-12-02T13:23:40.841Z,94
2017-12-02T13:24:40.899Z,90
2017-12-02T13:25:40.946Z,125
2017-12-02T13:26:40.953Z,83
2017-12-02T13:27:40.838Z,99
2017-12-02T13:28:40.920Z,127
2017-12-02T13:29:40.896Z,128
2017-12-02T13:30:40.853Z,138
2017-12-02T13:31:40.836Z,139
2017-12-02T13:32:40.843Z,133
2017-12-02T13:33:40.928Z,140
2017-12-02T13:34:40.859Z,137
2017-12-02T13:35:40.858Z,134
2017-12-02T13:36:40.966Z,97
2017-12-02T13:37:40.885Z,93
2017-12-02T13:38:40.852Z,96
2017-12-02T13:39:40.976Z,93
2017-12-02T13:40:40.984Z,93
2017-12-02T13:41:40.913Z,87
2017-12-02T13:42:40.981Z,87
2017-12-02T13:43:40.917Z,90
2017-12-02T13:44:40.983Z,95
2017-12-02T13:45:40.916Z,98
2017-12-02T13:46:40.991Z,92
2017-12-02T13:47:40.925Z,92
2017-12-02T13:48:40.984Z,90
2017-12-02T13:49:40.917Z,88
2017-12-02T13:50:40.983Z,85
2017-12-02T13:51:40.914Z,83
2017-12-02T13:52:40.989Z,79
2017-12-02T13:53:40.917Z,76
2017-12-02T13:54:40.989Z,70
2017-12-02T13:55:40.915Z,65
2017-12-02T13:56:40.989Z,60
2017-12-02T13:57:40.919Z,56
2017-12-02T13:58:40.918Z,52
2017-12-02T13:59:40.994Z,49
2017-12-02T14:00:40.844Z,46
2017-12-02T14:01:40.943Z,45
2017-12-02T14:02:40.939Z,44
2017-12-02T14:03:40.946Z,43
2017-12-02T14:04:40.886Z,44
2017-12-02T14:05:40.941Z,44
2017-12-02T14:06:40.843Z,45
2017-12-02T14:07:40.894Z,47
2017-12-02T14:08:40.946Z,47
2017-12-02T14:09:40.894Z,46
2017-12-02T14:10:40.996Z,44
2017-12-02T14:11:40.931Z,39
2017-12-02T14:12:40.927Z,33
2017-12-02T14:13:40.926Z,28
2017-12-02T14:14:40.999Z,25
2017-12-02T14:15:40.929Z,23
2017-12-02T14:16:41.001Z,22
2017-12-02T14:17:40.934Z,21
2017-12-02T14:18:41.000Z,21
2017-12-02T14:19:40.936Z,21
2017-12-02T14:20:41.003Z,21
2017-12-02T14:21:40.938Z,23
2017-12-02T14:22:41.004Z,22
2017-12-02T14:23:40.966Z,22
2017-12-02T14:24:40.936Z,21